Bangalore, India

6:50 AM IST on August 29, 2015 (GMT +0530)
Akshayanagar East, near DLF New Town, Begur | | Change Station
CLOSE
Current Station
Personal Weather Station
Location: Bengaluru, KARNATAKA
Elevation: 2992 ft
Nearby Weather Stations

Elev 2992 ft 12.87 °N, 77.62 °E | Updated 13 seconds ago

Scattered Clouds
Scattered Clouds
68.4 °F
Feels Like 68.4 °F
N
7.2
Wind Variable Wind from WSW
Gusts 12.3 mph

Today
High -- | Low -- °F
--% Chance of Precip.
Yesterday
High -- | Low -- °F
Precip. -- in
6:08 AM 6:32 PM
Waxing Gibbous, 99% visible
Pressure 29.92 in
Visibility 3.7 miles
Clouds Scattered Clouds 1000 ft
Dew Point 67 °F
Humidity 96%
Rainfall 0.00 in
Snow Depth Not available.
UV 1.0 out of 12
Pollen Not available.
Air Quality Not available.
Flu Activity Not available.
METAR VOBL 290100Z 28006KT 6000 SCT010 23/23 Q1013 NOSIG
Pressure 29.92 in
Visibility 3.7 miles
Clouds Scattered Clouds 1000 ft
Dew Point 67 °F
Humidity 96%
Rainfall 0.00 in
Snow Depth Not available.
UV 1.0 out of 12
Pollen Not available.
Air Quality Not available.
Flu Activity Not available.
METAR VOBL 290100Z 28006KT 6000 SCT010 23/23 Q1013 NOSIG

10-Day Weather Forecast

×

Almanac

Astronomy

Aug. 29, 2015 Rise Set
Actual Time
Civil Twilight
Nautical Twilight
Astronomical Twilight
Moon
Length of Visible Light
Length of Day
Tomorrow will be .
, % of the Moon is Illuminated

Today's Extremes

Country Highs Country Lows

Community

WunderPhotos

Upload Photos

1,850,566 photos uploaded!

WunderBlogs® & News

Nearby

Air Quality

  Air Quality AQ Index Pollutant
Not available.

Snow Depth

Station Depth Elevation

Earthquake Activity

City Distance Mag. Time & Date
Minimum magnitude displayed is 2.5.

Coastal Water Temperatures

Place Temperature

Stations

Nearby Weather Stations

Station Location Temp. Windchill Dew Point Humidity Wind Precip. Elev Updated Type